Time;durP1;ratioP1;P1;durP2;ratioP2;P2;SDS_P1;SDS_P2;PMS_P1;PMS_P2;Temp;Humidity;BMP_temperature;BMP_pressure;BME280_temperature;BME280_humidity;BME280_pressure;Samples;Min_cycle;Max_cycle;Signal;HPM_P1;HPM_P2
2021/05/12 00:01:40;;;;;;;1.20;0.85;;;;;;;-142.37;100.00;59669.53;5012458;28;20026;-59
2021/05/12 00:04:06;;;;;;;0.73;0.70;;;;;;;-142.37;100.00;59669.53;5013031;28;20037;-60
2021/05/12 00:06:31;;;;;;;1.27;0.77;;;;;;;-142.37;100.00;59669.53;5012971;28;20109;-59
2021/05/12 00:08:56;;;;;;;1.05;0.60;;;;;;;-142.37;100.00;59669.53;5013345;28;20029;-59
2021/05/12 00:11:21;;;;;;;1.60;0.77;;;;;;;-142.37;100.00;59669.53;5013233;28;20017;-59
2021/05/12 00:13:47;;;;;;;0.80;0.70;;;;;;;-142.37;100.00;59669.53;5013201;28;20068;-59
2021/05/12 00:16:12;;;;;;;1.35;0.82;;;;;;;-142.37;100.00;59669.53;5013287;28;20040;-59
2021/05/12 00:18:41;;;;;;;1.42;0.63;;;;;;;-142.37;100.00;59669.53;5013050;28;20373;-58
2021/05/12 00:21:10;;;;;;;1.83;0.73;;;;;;;-142.37;100.00;59669.53;5013086;28;20046;-59
2021/05/12 00:23:48;;;;;;;1.23;0.82;;;;;;;-142.37;100.00;59669.53;5012711;28;20489;-60
2021/05/12 00:26:14;;;;;;;1.10;0.70;;;;;;;-142.37;100.00;59669.53;5012733;28;20481;-58
2021/05/12 00:28:39;;;;;;;1.27;0.70;;;;;;;-142.37;100.00;59669.53;5012814;28;20318;-59
2021/05/12 00:31:05;;;;;;;0.95;0.70;;;;;;;-142.37;100.00;59669.53;5013096;28;20033;-58
2021/05/12 00:33:30;;;;;;;0.57;0.50;;;;;;;-142.37;100.00;59669.53;5012835;28;20386;-58
2021/05/12 00:35:55;;;;;;;0.77;0.60;;;;;;;-142.37;100.00;59669.53;5013047;28;20095;-59
2021/05/12 00:38:21;;;;;;;7.03;0.65;;;;;;;-142.37;100.00;59669.53;5012840;28;20033;-59
2021/05/12 00:40:46;;;;;;;0.95;0.70;;;;;;;-142.37;100.00;59669.53;5012819;28;20359;-58
2021/05/12 00:43:11;;;;;;;1.48;0.95;;;;;;;-142.37;100.00;59669.53;5012883;28;20061;-60
2021/05/12 00:45:37;;;;;;;1.35;0.70;;;;;;;-142.37;100.00;59669.53;5012756;28;20480;-58
2021/05/12 00:48:02;;;;;;;1.77;1.00;;;;;;;-142.37;100.00;59669.53;5012843;28;20072;-58
2021/05/12 00:50:29;;;;;;;0.95;0.65;;;;;;;-142.37;100.00;59669.53;5012557;28;20029;-59
2021/05/12 00:52:55;;;;;;;0.55;0.40;;;;;;;-142.37;100.00;59669.53;5011040;28;20037;-58
2021/05/12 00:55:21;;;;;;;1.42;0.80;;;;;;;-142.37;100.00;59669.53;5012690;28;20425;-59
2021/05/12 00:57:47;;;;;;;1.50;0.75;;;;;;;-142.37;100.00;59669.53;5012719;28;20037;-59
2021/05/12 01:00:15;;;;;;;0.77;0.60;;;;;;;-142.37;100.00;59669.53;5013041;28;20063;-58
2021/05/12 01:02:40;;;;;;;1.05;0.80;;;;;;;-142.37;100.00;59669.53;5012521;28;20400;-59
2021/05/12 01:05:13;;;;;;;1.50;0.50;;;;;;;-142.37;100.00;59669.53;5012790;28;20032;-58
2021/05/12 01:07:38;;;;;;;1.38;0.60;;;;;;;-142.37;100.00;59669.53;5012394;28;20079;-59
2021/05/12 01:10:04;;;;;;;0.63;0.63;;;;;;;-142.37;100.00;59669.53;5012749;28;20528;-60
2021/05/12 01:12:30;;;;;;;0.50;0.50;;;;;;;-142.37;100.00;59669.53;5012249;28;20034;-58
2021/05/12 01:14:55;;;;;;;0.80;0.75;;;;;;;-142.37;100.00;59669.53;5015025;28;20108;-59
2021/05/12 01:17:20;;;;;;;0.60;0.60;;;;;;;-142.37;100.00;59669.53;5016390;28;20041;-59
2021/05/12 01:19:46;;;;;;;0.88;0.60;;;;;;;-142.37;100.00;59669.53;5014986;28;20053;-58
2021/05/12 01:22:11;;;;;;;1.80;0.70;;;;;;;-142.37;100.00;59669.53;5016476;28;20029;-59
2021/05/12 01:24:37;;;;;;;0.75;0.55;;;;;;;-142.37;100.00;59669.53;5015806;28;20026;-58
2021/05/12 01:27:02;;;;;;;1.13;0.52;;;;;;;-142.37;100.00;59669.53;5016394;28;20037;-59
2021/05/12 01:29:28;;;;;;;1.10;0.73;;;;;;;-142.37;100.00;59669.53;5016045;28;20022;-59
2021/05/12 01:31:54;;;;;;;1.73;0.70;;;;;;;-142.37;100.00;59669.53;5016121;28;20026;-59
2021/05/12 01:34:21;;;;;;;0.82;0.75;;;;;;;-142.37;100.00;59669.53;5016113;28;20104;-59
2021/05/12 01:36:47;;;;;;;1.20;0.73;;;;;;;-142.37;100.00;59669.53;5001231;28;20041;-59
2021/05/12 01:39:15;;;;;;;1.52;0.82;;;;;;;-142.37;100.00;59669.53;4996612;28;20069;-59
2021/05/12 01:41:41;;;;;;;0.90;0.70;;;;;;;-142.37;100.00;59669.53;4995083;28;20130;-59
2021/05/12 01:44:11;;;;;;;1.35;0.85;;;;;;;-142.37;100.00;59669.53;4996600;28;20105;-58
2021/05/12 01:46:46;;;;;;;0.80;0.60;;;;;;;-142.37;100.00;59669.53;4996147;28;20026;-59
2021/05/12 01:49:12;;;;;;;1.05;0.70;;;;;;;-142.37;100.00;59669.53;4996394;28;20444;-59
2021/05/12 01:51:39;;;;;;;0.60;0.50;;;;;;;-142.37;100.00;59669.53;4996371;28;20018;-58
2021/05/12 01:54:07;;;;;;;1.38;0.63;;;;;;;-142.37;100.00;59669.53;5010919;28;20030;-59
2021/05/12 01:56:33;;;;;;;1.95;0.70;;;;;;;-142.37;100.00;59669.53;5014946;28;20038;-59
2021/05/12 01:58:59;;;;;;;0.68;0.60;;;;;;;-142.37;100.00;59669.53;5015842;28;20026;-58
2021/05/12 02:01:24;;;;;;;0.98;0.60;;;;;;;-142.37;100.00;59669.53;5015662;28;20026;-59
2021/05/12 02:03:49;;;;;;;0.82;0.60;;;;;;;-142.37;100.00;59669.53;5015683;28;20021;-58
2021/05/12 02:06:15;;;;;;;1.85;0.70;;;;;;;-142.37;100.00;59669.53;5015330;28;20417;-59
2021/05/12 02:08:40;;;;;;;1.42;0.73;;;;;;;-142.37;100.00;59669.53;5015281;28;20022;-59
2021/05/12 02:11:06;;;;;;;0.40;0.40;;;;;;;-142.37;100.00;59669.53;5015567;28;20056;-59
2021/05/12 02:13:33;;;;;;;0.93;0.60;;;;;;;-142.37;100.00;59669.53;5015179;28;20048;-59
2021/05/12 02:16:01;;;;;;;0.93;0.68;;;;;;;-142.37;100.00;59669.53;5015527;28;20032;-60
2021/05/12 02:18:27;;;;;;;0.82;0.70;;;;;;;-142.37;100.00;59669.53;5015139;28;20177;-58
2021/05/12 02:20:52;;;;;;;0.73;0.50;;;;;;;-142.37;100.00;59669.53;5015155;28;20046;-59
2021/05/12 02:23:20;;;;;;;1.52;0.73;;;;;;;-142.37;100.00;59669.53;5014755;28;20022;-60
2021/05/12 02:25:45;;;;;;;1.30;1.00;;;;;;;-142.37;100.00;59669.53;5013837;28;20038;-59
2021/05/12 02:28:11;;;;;;;1.23;0.52;;;;;;;-142.37;100.00;59669.53;5015181;28;20028;-59
2021/05/12 02:30:38;;;;;;;1.10;0.60;;;;;;;-142.37;100.00;59669.53;5014895;28;20125;-59
2021/05/12 02:33:05;;;;;;;0.65;0.65;;;;;;;-142.37;100.00;59669.53;5015062;28;20021;-59
2021/05/12 02:35:30;;;;;;;0.80;0.47;;;;;;;-142.37;100.00;59669.53;5014863;28;20541;-59
2021/05/12 02:37:56;;;;;;;1.02;0.55;;;;;;;-142.37;100.00;59669.53;5014996;28;20125;-58
2021/05/12 02:40:22;;;;;;;1.13;0.65;;;;;;;-142.37;100.00;59669.53;5014872;28;20036;-59
2021/05/12 02:42:49;;;;;;;1.92;0.60;;;;;;;-142.37;100.00;59669.53;5014836;28;20022;-59
2021/05/12 02:45:15;;;;;;;0.60;0.55;;;;;;;-142.37;100.00;59669.53;5013627;28;20121;-59
2021/05/12 02:47:41;;;;;;;3.53;0.50;;;;;;;-142.37;100.00;59669.53;5003185;28;20106;-59
2021/05/12 02:50:09;;;;;;;0.73;0.50;;;;;;;-142.37;100.00;59669.53;4995286;28;20113;-59
2021/05/12 02:52:35;;;;;;;1.25;0.50;;;;;;;-142.37;100.00;59669.53;4999645;28;20022;-60
2021/05/12 02:55:00;;;;;;;1.45;1.02;;;;;;;-142.37;100.00;59669.53;5014727;28;20380;-60
2021/05/12 02:57:25;;;;;;;1.35;0.50;;;;;;;-142.37;100.00;59669.53;5014525;28;20037;-59
2021/05/12 02:59:51;;;;;;;0.55;0.30;;;;;;;-142.37;100.00;59669.53;5014639;28;20037;-59
2021/05/12 03:02:16;;;;;;;0.38;0.30;;;;;;;-142.37;100.00;59669.53;5014822;28;20454;-59
2021/05/12 03:04:42;;;;;;;0.50;0.40;;;;;;;-142.37;100.00;59669.53;5014246;28;20528;-59
2021/05/12 03:07:07;;;;;;;0.52;0.45;;;;;;;-142.37;100.00;59669.53;5014689;28;20025;-59
2021/05/12 03:09:33;;;;;;;1.00;0.65;;;;;;;-142.37;100.00;59669.53;5012939;28;20030;-59
2021/05/12 03:11:58;;;;;;;0.82;0.52;;;;;;;-142.37;100.00;59669.53;5014334;28;20032;-59
2021/05/12 03:14:24;;;;;;;0.65;0.47;;;;;;;-142.37;100.00;59669.53;5014132;28;20026;-59
2021/05/12 03:16:49;;;;;;;0.80;0.50;;;;;;;-142.37;100.00;59669.53;5013971;28;20041;-59
2021/05/12 03:19:15;;;;;;;0.88;0.50;;;;;;;-142.37;100.00;59669.53;5014200;28;20030;-59
2021/05/12 03:21:41;;;;;;;0.75;0.55;;;;;;;-142.37;100.00;59669.53;5013927;28;20060;-59
2021/05/12 03:24:06;;;;;;;0.60;0.40;;;;;;;-142.37;100.00;59669.53;5012350;28;20029;-59
2021/05/12 03:26:34;;;;;;;0.60;0.55;;;;;;;-142.37;100.00;59669.53;5013475;28;20030;-59
2021/05/12 03:29:00;;;;;;;0.40;0.40;;;;;;;-142.37;100.00;59669.53;5014046;28;20088;-59
2021/05/12 03:31:26;;;;;;;0.65;0.40;;;;;;;-142.37;100.00;59669.53;5013798;28;20473;-59
2021/05/12 03:33:55;;;;;;;0.68;0.38;;;;;;;-142.37;100.00;59669.53;5013958;28;20105;-59
2021/05/12 03:36:22;;;;;;;1.08;0.70;;;;;;;-142.37;100.00;59669.53;5013601;28;20531;-59
2021/05/12 03:38:47;;;;;;;0.80;0.50;;;;;;;-142.37;100.00;59669.53;5013751;28;20034;-59
2021/05/12 03:41:13;;;;;;;1.13;0.52;;;;;;;-142.37;100.00;59669.53;5013846;28;20021;-59
2021/05/12 03:43:38;;;;;;;0.38;0.30;;;;;;;-142.37;100.00;59669.53;5013622;28;20457;-59
2021/05/12 03:46:03;;;;;;;0.73;0.52;;;;;;;-142.37;100.00;59669.53;5013842;28;20105;-59
2021/05/12 03:48:30;;;;;;;0.82;0.43;;;;;;;-142.37;100.00;59669.53;5013472;28;20045;-60
2021/05/12 03:50:56;;;;;;;0.93;0.50;;;;;;;-142.37;100.00;59669.53;5013727;28;20044;-59
2021/05/12 03:53:21;;;;;;;0.68;0.30;;;;;;;-142.37;100.00;59669.53;5013076;28;20473;-59
2021/05/12 03:55:46;;;;;;;1.75;0.63;;;;;;;-142.37;100.00;59669.53;5014121;28;20026;-59
2021/05/12 03:58:12;;;;;;;0.68;0.50;;;;;;;-142.37;100.00;59669.53;5013822;28;20104;-59
2021/05/12 04:00:37;;;;;;;1.67;0.50;;;;;;;-142.37;100.00;59669.53;5013164;28;20030;-59
2021/05/12 04:03:03;;;;;;;0.70;0.50;;;;;;;-142.37;100.00;59669.53;5013817;28;20381;-59
2021/05/12 04:05:29;;;;;;;1.00;0.40;;;;;;;-142.37;100.00;59669.53;5013314;28;20530;-59
2021/05/12 04:07:55;;;;;;;0.55;0.38;;;;;;;-142.37;100.00;59669.53;5013381;28;20425;-59
2021/05/12 04:10:21;;;;;;;0.80;0.40;;;;;;;-142.37;100.00;59669.53;5013255;28;20466;-59
2021/05/12 04:12:46;;;;;;;1.02;0.50;;;;;;;-142.37;100.00;59669.53;5013095;28;20264;-59
2021/05/12 04:15:12;;;;;;;0.80;0.52;;;;;;;-142.37;100.00;59669.53;5013275;28;20385;-59
2021/05/12 04:17:38;;;;;;;0.75;0.30;;;;;;;-142.37;100.00;59669.53;5013142;28;20033;-59
2021/05/12 04:20:10;;;;;;;1.42;0.60;;;;;;;-142.37;100.00;59669.53;5011776;28;20037;-59
2021/05/12 04:22:35;;;;;;;0.70;0.50;;;;;;;-142.37;100.00;59669.53;5012754;28;20057;-59
2021/05/12 04:25:00;;;;;;;0.73;0.40;;;;;;;-142.37;100.00;59669.53;5013150;28;20022;-60
2021/05/12 04:27:26;;;;;;;0.40;0.40;;;;;;;-142.37;100.00;59669.53;5012956;28;20041;-58
2021/05/12 04:29:51;;;;;;;1.55;0.70;;;;;;;-142.37;100.00;59669.53;5013041;28;20120;-59
2021/05/12 04:32:16;;;;;;;1.35;0.60;;;;;;;-142.37;100.00;59669.53;5012925;28;20026;-59
2021/05/12 04:34:42;;;;;;;0.30;0.30;;;;;;;-142.37;100.00;59669.53;5012847;28;20112;-59
2021/05/12 04:37:07;;;;;;;0.60;0.43;;;;;;;-142.37;100.00;59669.53;5013052;28;20021;-59
2021/05/12 04:39:32;;;;;;;0.35;0.30;;;;;;;-142.37;100.00;59669.53;5012821;28;20025;-59
2021/05/12 04:41:58;;;;;;;0.77;0.30;;;;;;;-142.37;100.00;59669.53;5013605;28;20024;-59
2021/05/12 04:44:23;;;;;;;1.35;0.55;;;;;;;-142.37;100.00;59669.53;5012833;28;20065;-59
2021/05/12 04:46:49;;;;;;;0.45;0.30;;;;;;;-142.37;100.00;59669.53;5013127;28;20033;-59
2021/05/12 04:49:16;;;;;;;0.50;0.30;;;;;;;-142.37;100.00;59669.53;5012651;28;20413;-58
2021/05/12 04:51:41;;;;;;;0.50;0.43;;;;;;;-142.37;100.00;59669.53;5012456;28;20022;-59
2021/05/12 04:54:07;;;;;;;0.98;0.50;;;;;;;-142.37;100.00;59669.53;5012245;28;20034;-58
2021/05/12 04:56:33;;;;;;;1.00;0.30;;;;;;;-142.37;100.00;59669.53;5012366;28;20069;-59
2021/05/12 04:58:59;;;;;;;1.33;0.52;;;;;;;-142.37;100.00;59669.53;5012901;28;20038;-59
2021/05/12 05:01:25;;;;;;;1.20;0.45;;;;;;;-142.37;100.00;59669.53;5012575;28;20017;-59
2021/05/12 05:03:50;;;;;;;0.50;0.30;;;;;;;-142.37;100.00;59669.53;5012770;28;20528;-59
2021/05/12 05:06:16;;;;;;;1.00;0.55;;;;;;;-142.37;100.00;59669.53;5012712;28;20034;-59
2021/05/12 05:08:42;;;;;;;0.60;0.30;;;;;;;-142.37;100.00;59669.53;5012462;28;20030;-60
2021/05/12 05:11:07;;;;;;;2.08;0.60;;;;;;;-142.37;100.00;59669.53;5008337;28;20059;-58
2021/05/12 05:13:33;;;;;;;0.90;0.30;;;;;;;-142.37;100.00;59669.53;5012027;28;20113;-59
2021/05/12 05:15:58;;;;;;;0.70;0.40;;;;;;;-142.37;100.00;59669.53;5012997;28;20481;-58
2021/05/12 05:18:23;;;;;;;1.27;0.40;;;;;;;-142.37;100.00;59669.53;5012504;28;20101;-59
2021/05/12 05:20:49;;;;;;;0.85;0.32;;;;;;;-142.37;100.00;59669.53;5012301;28;20042;-59
2021/05/12 05:23:14;;;;;;;0.80;0.40;;;;;;;-142.37;100.00;59669.53;5012335;28;20030;-59
2021/05/12 05:25:40;;;;;;;0.40;0.38;;;;;;;-142.37;100.00;59669.53;5011162;28;20420;-59
2021/05/12 05:28:05;;;;;;;1.10;0.40;;;;;;;-142.37;100.00;59669.53;5012339;28;20469;-59
2021/05/12 05:30:30;;;;;;;1.60;0.40;;;;;;;-142.37;100.00;59669.53;5012264;28;20026;-59
2021/05/12 05:33:00;;;;;;;1.48;0.30;;;;;;;-142.37;100.00;59669.53;5012438;28;20184;-59
2021/05/12 05:35:26;;;;;;;0.75;0.22;;;;;;;-142.37;100.00;59669.53;5008353;28;20026;-60
2021/05/12 05:37:51;;;;;;;0.70;0.45;;;;;;;-142.37;100.00;59669.53;4992822;28;20500;-59
2021/05/12 05:40:16;;;;;;;0.50;0.35;;;;;;;-142.37;100.00;59669.53;4992866;28;20065;-59
2021/05/12 05:42:42;;;;;;;0.63;0.30;;;;;;;-142.37;100.00;59669.53;4992734;28;20081;-59
2021/05/12 05:45:08;;;;;;;0.77;0.30;;;;;;;-142.37;100.00;59669.53;4992817;28;20022;-59
2021/05/12 05:47:33;;;;;;;2.38;0.65;;;;;;;-142.37;100.00;59669.53;4992516;28;20034;-59
2021/05/12 05:49:58;;;;;;;1.20;0.30;;;;;;;-142.37;100.00;59669.53;4992790;28;20459;-59
2021/05/12 05:52:23;;;;;;;0.45;0.38;;;;;;;-142.37;100.00;59669.53;5002055;28;20030;-59
2021/05/12 05:54:49;;;;;;;0.80;0.30;;;;;;;-142.37;100.00;59669.53;5012154;28;20409;-59
2021/05/12 05:57:17;;;;;;;0.70;0.30;;;;;;;-142.37;100.00;59669.53;5012049;28;20401;-59
2021/05/12 05:59:42;;;;;;;0.30;0.30;;;;;;;-142.37;100.00;59669.53;5012085;28;20026;-59
2021/05/12 06:02:08;;;;;;;0.88;0.38;;;;;;;-142.37;100.00;59669.53;5015711;28;20026;-59
2021/05/12 06:04:34;;;;;;;1.33;0.32;;;;;;;-142.37;100.00;59669.53;5015385;28;20079;-59
2021/05/12 06:06:59;;;;;;;0.65;0.50;;;;;;;-142.37;100.00;59669.53;5015352;28;20026;-59
2021/05/12 06:09:24;;;;;;;0.68;0.20;;;;;;;-142.37;100.00;59669.53;5015313;28;20373;-59
2021/05/12 06:11:50;;;;;;;0.98;0.22;;;;;;;-142.37;100.00;59669.53;5015469;28;20033;-59
2021/05/12 06:14:16;;;;;;;0.38;0.17;;;;;;;-142.37;100.00;59669.53;5015117;28;20022;-59
2021/05/12 06:16:42;;;;;;;0.88;0.28;;;;;;;-142.37;100.00;59669.53;5015362;28;20444;-59
2021/05/12 06:19:07;;;;;;;0.52;0.20;;;;;;;-142.37;100.00;59669.53;5015405;28;20072;-60
2021/05/12 06:21:32;;;;;;;0.25;0.10;;;;;;;-142.37;100.00;59669.53;5014683;28;20427;-59
2021/05/12 06:23:57;;;;;;;0.85;0.20;;;;;;;-142.37;100.00;59669.53;5015203;28;20029;-59
2021/05/12 06:26:23;;;;;;;0.75;0.30;;;;;;;-142.37;100.00;59669.53;5013946;28;20018;-59
2021/05/12 06:28:49;;;;;;;0.25;0.17;;;;;;;-142.37;100.00;59669.53;5014652;28;20489;-59
2021/05/12 06:31:14;;;;;;;1.13;0.85;;;;;;;-142.37;100.00;59669.53;5014341;28;20032;-59
2021/05/12 06:33:44;;;;;;;1.40;0.30;;;;;;;-142.37;100.00;59669.53;5013866;28;20382;-59
2021/05/12 06:36:09;;;;;;;1.17;0.30;;;;;;;-142.37;100.00;59669.53;5013396;28;20043;-59
2021/05/12 06:38:35;;;;;;;0.40;0.20;;;;;;;-142.37;100.00;59669.53;5013370;28;20017;-59
2021/05/12 06:41:00;;;;;;;1.13;0.20;;;;;;;-142.37;100.00;59669.53;5014568;28;20037;-59
2021/05/12 06:43:27;;;;;;;0.38;0.30;;;;;;;-142.37;100.00;59669.53;5015446;28;20022;-59
2021/05/12 06:45:52;;;;;;;0.50;0.30;;;;;;;-142.37;100.00;59669.53;5014537;28;20152;-59
2021/05/12 06:48:18;;;;;;;0.30;0.10;;;;;;;-142.37;100.00;59669.53;5013930;28;20104;-59
2021/05/12 06:50:44;;;;;;;0.68;0.32;;;;;;;-142.37;100.00;59669.53;5014197;28;20075;-59
2021/05/12 06:53:10;;;;;;;0.47;0.15;;;;;;;-142.37;100.00;59669.53;5014748;28;20033;-59
2021/05/12 06:55:35;;;;;;;0.55;0.20;;;;;;;-142.37;100.00;59669.53;5015299;28;20468;-59
2021/05/12 06:58:01;;;;;;;0.38;0.30;;;;;;;-142.37;100.00;59669.53;5013960;28;20069;-60
2021/05/12 07:00:26;;;;;;;0.63;0.40;;;;;;;-142.37;100.00;59669.53;5013791;28;20022;-60
2021/05/12 07:02:51;;;;;;;1.63;0.40;;;;;;;-142.37;100.00;59669.53;5013063;28;20018;-60
2021/05/12 07:05:19;;;;;;;0.75;0.25;;;;;;;-142.37;100.00;59669.53;5014162;28;20034;-60
2021/05/12 07:07:45;;;;;;;0.43;0.17;;;;;;;-142.37;100.00;59669.53;5011995;28;20029;-60
2021/05/12 07:10:12;;;;;;;0.45;0.20;;;;;;;-142.37;100.00;59669.53;5012866;28;20034;-60
2021/05/12 07:12:38;;;;;;;1.00;0.20;;;;;;;-142.37;100.00;59669.53;5013013;28;20122;-59
2021/05/12 07:15:04;;;;;;;0.63;0.30;;;;;;;-142.37;100.00;59669.53;5013180;28;20108;-59
2021/05/12 07:17:30;;;;;;;1.08;0.10;;;;;;;-142.37;100.00;59669.53;5013317;28;20539;-59
2021/05/12 07:19:55;;;;;;;1.38;0.25;;;;;;;-142.37;100.00;59669.53;5012666;28;20046;-59
2021/05/12 07:22:21;;;;;;;0.52;0.20;;;;;;;-142.37;100.00;59669.53;5013324;28;20074;-60
2021/05/12 07:24:47;;;;;;;0.80;0.30;;;;;;;-142.37;100.00;59669.53;5013636;28;20030;-60
2021/05/12 07:27:12;;;;;;;0.52;0.30;;;;;;;-142.37;100.00;59669.53;5014114;28;20036;-60
2021/05/12 07:29:38;;;;;;;0.15;0.10;;;;;;;-142.37;100.00;59669.53;5013665;28;20036;-59
2021/05/12 07:32:03;;;;;;;0.68;0.28;;;;;;;-142.37;100.00;59669.53;5013645;28;20041;-59
2021/05/12 07:34:29;;;;;;;0.70;0.38;;;;;;;-142.37;100.00;59669.53;5012550;28;20022;-59
2021/05/12 07:36:54;;;;;;;0.20;0.10;;;;;;;-142.37;100.00;59669.53;5013931;28;20373;-59
2021/05/12 07:39:19;;;;;;;0.77;0.20;;;;;;;-142.37;100.00;59669.53;5011800;28;20033;-59
2021/05/12 07:41:46;;;;;;;0.20;0.20;;;;;;;-142.37;100.00;59669.53;5012280;28;20405;-59
2021/05/12 07:44:11;;;;;;;1.25;0.10;;;;;;;-142.37;100.00;59669.53;5021773;28;20053;-59
2021/05/12 07:46:36;;;;;;;0.45;0.20;;;;;;;-142.37;100.00;59669.53;5030044;28;20059;-60
2021/05/12 07:49:02;;;;;;;0.40;0.28;;;;;;;-142.37;100.00;59669.53;5016224;28;20022;-60
2021/05/12 07:51:27;;;;;;;1.02;0.20;;;;;;;-142.37;100.00;59669.53;5011036;28;20108;-59
2021/05/12 07:53:53;;;;;;;0.93;0.32;;;;;;;-142.37;100.00;59669.53;5012552;28;20053;-60
2021/05/12 07:56:19;;;;;;;0.52;0.10;;;;;;;-142.37;100.00;59669.53;5011085;28;20041;-59
2021/05/12 07:58:44;;;;;;;0.22;0.20;;;;;;;-142.37;100.00;59669.53;5012765;28;20022;-59
2021/05/12 08:01:26;;;;;;;0.40;0.20;;;;;;;-142.37;100.00;59669.53;5010792;28;20065;-59
2021/05/12 08:03:52;;;;;;;0.98;0.30;;;;;;;-142.37;100.00;59669.53;5011709;28;20500;-59
2021/05/12 08:06:17;;;;;;;0.85;0.38;;;;;;;-142.37;100.00;59669.53;5012563;28;20061;-59
2021/05/12 08:08:42;;;;;;;0.73;0.50;;;;;;;-142.37;100.00;59669.53;5011675;28;20068;-59
2021/05/12 08:11:07;;;;;;;0.75;0.47;;;;;;;-142.37;100.00;59669.53;5012661;28;20038;-60
2021/05/12 08:13:33;;;;;;;0.20;0.10;;;;;;;-142.37;100.00;59669.53;5011478;28;20461;-61
2021/05/12 08:15:59;;;;;;;1.05;0.40;;;;;;;-142.37;100.00;59669.53;5011129;28;20034;-60
2021/05/12 08:18:25;;;;;;;0.82;0.20;;;;;;;-142.37;100.00;59669.53;5011021;28;20420;-61
2021/05/12 08:20:52;;;;;;;0.98;0.50;;;;;;;-142.37;100.00;59669.53;5008991;28;20056;-60
2021/05/12 08:23:18;;;;;;;0.43;0.20;;;;;;;-142.37;100.00;59669.53;5009514;28;20132;-60
2021/05/12 08:25:44;;;;;;;0.55;0.20;;;;;;;-142.37;100.00;59669.53;5011629;28;20109;-59
2021/05/12 08:28:10;;;;;;;0.43;0.10;;;;;;;-142.37;100.00;59669.53;5009372;28;20425;-64
2021/05/12 08:30:37;;;;;;;0.40;0.22;;;;;;;-142.37;100.00;59669.53;5011170;28;20530;-61
2021/05/12 08:33:03;;;;;;;0.10;0.10;;;;;;;-142.37;100.00;59669.53;5011083;28;20045;-60
2021/05/12 08:35:30;;;;;;;0.20;0.20;;;;;;;-142.37;100.00;59669.53;5011263;28;20026;-61
2021/05/12 08:37:56;;;;;;;0.20;0.20;;;;;;;-142.37;100.00;59669.53;5010612;28;20499;-59
2021/05/12 08:40:21;;;;;;;1.73;0.30;;;;;;;-142.37;100.00;59669.53;5010959;28;20109;-60
2021/05/12 08:42:49;;;;;;;0.47;0.22;;;;;;;-142.37;100.00;59669.53;5010724;28;20465;-59
2021/05/12 08:45:15;;;;;;;0.85;0.30;;;;;;;-142.37;100.00;59669.53;5011550;28;20457;-60
2021/05/12 08:47:44;;;;;;;0.28;0.10;;;;;;;-142.37;100.00;59669.53;5010957;28;20128;-60
2021/05/12 08:50:09;;;;;;;0.45;0.30;;;;;;;-142.37;100.00;59669.53;5007777;28;20026;-59
2021/05/12 08:52:36;;;;;;;0.40;0.22;;;;;;;-142.37;100.00;59669.53;5016606;28;20355;-59
2021/05/12 08:55:03;;;;;;;0.38;0.30;;;;;;;-142.37;100.00;59669.53;5010629;28;20108;-59
2021/05/12 08:57:28;;;;;;;0.35;0.15;;;;;;;-142.37;100.00;59669.53;5009322;28;20461;-59
2021/05/12 08:59:53;;;;;;;0.30;0.20;;;;;;;-142.37;100.00;59669.53;5011596;28;20068;-59
2021/05/12 09:02:19;;;;;;;0.60;0.35;;;;;;;-142.37;100.00;59669.53;5011299;28;20028;-59
2021/05/12 09:04:45;;;;;;;0.52;0.10;;;;;;;-142.37;100.00;59669.53;5012029;28;20466;-59
2021/05/12 09:07:10;;;;;;;0.30;0.22;;;;;;;-142.37;100.00;59669.53;5011605;28;20041;-59
2021/05/12 09:09:35;;;;;;;0.40;0.30;;;;;;;-142.37;100.00;59669.53;5011403;28;20369;-60
2021/05/12 09:12:01;;;;;;;2.10;0.30;;;;;;;-142.37;100.00;59669.53;5010055;28;20516;-58
2021/05/12 09:14:31;;;;;;;0.57;0.10;;;;;;;-142.37;100.00;59669.53;5009701;28;20042;-60
2021/05/12 09:16:57;;;;;;;0.40;0.20;;;;;;;-142.37;100.00;59669.53;5011026;28;20035;-59
2021/05/12 09:19:24;;;;;;;0.30;0.22;;;;;;;-142.37;100.00;59669.53;5011221;28;20032;-60
2021/05/12 09:21:52;;;;;;;0.85;0.20;;;;;;;-142.37;100.00;59669.53;5011112;28;20042;-61
2021/05/12 09:24:37;;;;;;;0.35;0.17;;;;;;;-142.37;100.00;59669.53;5010785;28;20029;-58
2021/05/12 09:27:05;;;;;;;0.52;0.20;;;;;;;-142.37;100.00;59669.53;5010850;28;20029;-59
2021/05/12 09:29:37;;;;;;;0.75;0.10;;;;;;;-142.37;100.00;59669.53;5009952;28;20030;-58
2021/05/12 09:32:09;;;;;;;0.63;0.10;;;;;;;-142.37;100.00;59669.53;5008107;28;20026;-60
2021/05/12 09:34:52;;;;;;;1.50;0.25;;;;;;;-142.37;100.00;59669.53;5013141;28;20112;-60
2021/05/12 09:37:26;;;;;;;0.50;0.10;;;;;;;-142.37;100.00;59669.53;5012581;28;20030;-59
2021/05/12 09:39:52;;;;;;;0.22;0.10;;;;;;;-142.37;100.00;59669.53;5015367;28;20369;-59
2021/05/12 09:42:19;;;;;;;0.43;0.10;;;;;;;-142.37;100.00;59669.53;5013240;28;20076;-60
2021/05/12 09:44:45;;;;;;;0.70;0.20;;;;;;;-142.37;100.00;59669.53;5014325;28;20054;-59
2021/05/12 09:47:10;;;;;;;0.60;0.25;;;;;;;-142.37;100.00;59669.53;5015056;28;20065;-60
2021/05/12 09:49:40;;;;;;;0.50;0.10;;;;;;;-142.37;100.00;59669.53;5014120;28;20018;-59
2021/05/12 09:52:06;;;;;;;0.93;0.20;;;;;;;-142.37;100.00;59669.53;5010738;28;20373;-60
2021/05/12 09:54:33;;;;;;;0.38;0.20;;;;;;;-142.37;100.00;59669.53;5014403;28;20018;-59
2021/05/12 09:56:58;;;;;;;0.17;0.10;;;;;;;-142.37;100.00;59669.53;5014796;28;20033;-60
2021/05/12 09:59:32;;;;;;;1.02;0.40;;;;;;;-142.37;100.00;59669.53;5012749;28;20022;-60
2021/05/12 10:02:02;;;;;;;0.10;0.10;;;;;;;-142.37;100.00;59669.53;5008928;28;20026;-59
2021/05/12 10:04:35;;;;;;;0.55;0.10;;;;;;;-142.37;100.00;59669.53;5006451;28;20077;-60
2021/05/12 10:07:12;;;;;;;0.88;0.38;;;;;;;-142.37;100.00;59669.53;5013312;28;20076;-60
2021/05/12 10:09:40;;;;;;;0.60;0.20;;;;;;;-142.37;100.00;59669.53;5019174;28;20032;-60
2021/05/12 10:12:25;;;;;;;0.10;0.10;;;;;;;-142.37;100.00;59669.53;5026455;28;20029;-59
2021/05/12 10:14:56;;;;;;;0.20;0.20;;;;;;;-142.37;100.00;59669.53;5013907;28;20069;-60
2021/05/12 10:17:22;;;;;;;0.40;0.25;;;;;;;-142.37;100.00;59669.53;5014348;28;20029;-59
2021/05/12 10:19:49;;;;;;;0.40;0.20;;;;;;;-142.37;100.00;59669.53;5026465;23;20414;-60
2021/05/12 10:22:16;;;;;;;0.38;0.22;;;;;;;-142.37;100.00;59669.53;5068263;28;20044;-59
2021/05/12 10:24:44;;;;;;;0.65;0.20;;;;;;;-142.37;100.00;59669.53;5060775;28;20035;-60
2021/05/12 10:27:13;;;;;;;0.25;0.10;;;;;;;-142.37;100.00;59669.53;5062771;28;20565;-60
2021/05/12 10:29:42;;;;;;;0.50;0.20;;;;;;;-142.37;100.00;59669.53;5061869;28;20459;-59
2021/05/12 10:32:22;;;;;;;1.15;0.40;;;;;;;-142.37;100.00;59669.53;5064453;28;20048;-60
2021/05/12 10:34:57;;;;;;;0.57;0.10;;;;;;;-142.37;100.00;59669.53;5067178;28;20075;-60
2021/05/12 10:37:28;;;;;;;0.45;0.10;;;;;;;-142.37;100.00;59669.53;5072056;28;20055;-59
2021/05/12 10:40:15;;;;;;;0.52;0.20;;;;;;;-142.37;100.00;59669.53;5071414;28;20036;-60
2021/05/12 10:42:48;;;;;;;0.28;0.25;;;;;;;-142.37;100.00;59669.53;5071834;28;20040;-59
2021/05/12 10:45:35;;;;;;;0.52;0.13;;;;;;;-142.37;100.00;59669.53;5067361;28;20035;-59
2021/05/12 10:48:03;;;;;;;0.10;0.10;;;;;;;-142.37;100.00;59669.53;5064438;28;20487;-59
2021/05/12 10:50:48;;;;;;;0.10;0.10;;;;;;;-142.37;100.00;59669.53;5056451;28;20029;-60
2021/05/12 10:53:20;;;;;;;1.58;0.43;;;;;;;-142.37;100.00;59669.53;5065311;28;20021;-60
2021/05/12 10:55:57;;;;;;;1.50;0.38;;;;;;;-142.37;100.00;59669.53;5070853;28;20416;-59
2021/05/12 10:58:27;;;;;;;0.55;0.20;;;;;;;-142.37;100.00;59669.53;5079206;28;20060;-59
2021/05/12 11:01:04;;;;;;;0.77;0.20;;;;;;;-142.37;100.00;59669.53;5067822;28;20028;-60
2021/05/12 11:03:48;;;;;;;0.22;0.20;;;;;;;-142.37;100.00;59669.53;5064294;28;20110;-59
2021/05/12 11:06:14;;;;;;;0.82;0.40;;;;;;;-142.37;100.00;59669.53;5069345;28;20024;-59
2021/05/12 11:09:10;;;;;;;0.52;0.20;;;;;;;-142.37;100.00;59669.53;5070918;28;20466;-59